Terminal Aerodrome Forecast
Issued by NWS Paducah, KY

Home | Current Version | Previous Version | Text Only | Print | Product List | Glossary On
Versions: 1 2 3 4 5 6 7 8 9 10 11 12 13 14 15 16 17
000
FTUS43 KPAH 072320
TAFPAH
TAF
KPAH 072320Z 0800/0824 24007KT P6SM FEW090 SCT200
     FM081200 07006KT P6SM VCSH BKN070
     FM081600 12007KT 6SM -SHRA BR OVC025
     FM082300 13010KT P6SM BKN100=

USA.gov is the U.S. government's official web portal to all federal, state and local government web resources and services.